sensor_id;sensor_type;location;lat;lon;timestamp;pressure;altitude;pressure_sealevel;temperature;humidity
75157;BME280;63736;50.076;8.198;2023-06-14T00:02:02;99176.28;;;17.40;40.10
75157;BME280;63736;50.076;8.198;2023-06-14T00:04:28;99173.78;;;17.38;39.90
75157;BME280;63736;50.076;8.198;2023-06-14T00:06:53;99176.84;;;17.35;39.97
75157;BME280;63736;50.076;8.198;2023-06-14T00:09:22;99178.88;;;17.33;39.89
75157;BME280;63736;50.076;8.198;2023-06-14T00:11:47;99178.03;;;17.32;39.98
75157;BME280;63736;50.076;8.198;2023-06-14T00:14:12;99176.00;;;17.34;40.15
75157;BME280;63736;50.076;8.198;2023-06-14T00:16:39;99178.34;;;17.38;40.14
75157;BME280;63736;50.076;8.198;2023-06-14T00:19:08;99173.09;;;17.36;39.94
75157;BME280;63736;50.076;8.198;2023-06-14T00:21:33;99174.78;;;17.37;40.09
75157;BME280;63736;50.076;8.198;2023-06-14T00:24:00;99178.97;;;17.40;40.22
75157;BME280;63736;50.076;8.198;2023-06-14T00:26:26;99177.66;;;17.36;40.13
75157;BME280;63736;50.076;8.198;2023-06-14T00:28:52;99179.53;;;17.35;40.32
75157;BME280;63736;50.076;8.198;2023-06-14T00:31:17;99180.06;;;17.30;40.52
75157;BME280;63736;50.076;8.198;2023-06-14T00:33:43;99185.00;;;17.27;40.25
75157;BME280;63736;50.076;8.198;2023-06-14T00:36:08;99176.59;;;17.22;40.58
75157;BME280;63736;50.076;8.198;2023-06-14T00:38:33;99177.78;;;17.19;40.37
75157;BME280;63736;50.076;8.198;2023-06-14T00:40:59;99181.53;;;17.18;40.42
75157;BME280;63736;50.076;8.198;2023-06-14T00:43:24;99187.94;;;17.17;40.71
75157;BME280;63736;50.076;8.198;2023-06-14T00:45:50;99187.09;;;17.16;40.24
75157;BME280;63736;50.076;8.198;2023-06-14T00:48:16;99179.84;;;17.17;40.32
75157;BME280;63736;50.076;8.198;2023-06-14T00:50:42;99181.06;;;17.14;40.84
75157;BME280;63736;50.076;8.198;2023-06-14T00:53:11;99185.78;;;17.12;40.82
75157;BME280;63736;50.076;8.198;2023-06-14T00:55:36;99184.09;;;17.11;40.85
75157;BME280;63736;50.076;8.198;2023-06-14T00:58:02;99184.94;;;17.12;40.61
75157;BME280;63736;50.076;8.198;2023-06-14T01:00:27;99185.97;;;17.11;40.56
75157;BME280;63736;50.076;8.198;2023-06-14T01:02:53;99190.34;;;17.12;40.54
75157;BME280;63736;50.076;8.198;2023-06-14T01:05:19;99192.34;;;17.18;40.59
75157;BME280;63736;50.076;8.198;2023-06-14T01:08:01;99192.78;;;17.22;40.65
75157;BME280;63736;50.076;8.198;2023-06-14T01:10:35;99187.41;;;17.22;40.56
75157;BME280;63736;50.076;8.198;2023-06-14T01:15:43;99198.50;;;17.27;40.79
75157;BME280;63736;50.076;8.198;2023-06-14T01:18:09;99197.16;;;17.23;40.84
75157;BME280;63736;50.076;8.198;2023-06-14T01:20:43;99194.47;;;17.23;40.48
75157;BME280;63736;50.076;8.198;2023-06-14T01:23:10;99192.16;;;17.20;40.83
75157;BME280;63736;50.076;8.198;2023-06-14T01:25:37;99193.84;;;17.21;40.86
75157;BME280;63736;50.076;8.198;2023-06-14T01:28:05;99187.41;;;17.22;40.93
75157;BME280;63736;50.076;8.198;2023-06-14T01:30:36;99194.00;;;17.19;40.80
75157;BME280;63736;50.076;8.198;2023-06-14T01:33:03;99194.84;;;17.20;40.98
75157;BME280;63736;50.076;8.198;2023-06-14T01:35:29;99191.13;;;17.21;40.70
75157;BME280;63736;50.076;8.198;2023-06-14T01:37:55;99194.47;;;17.23;40.97
75157;BME280;63736;50.076;8.198;2023-06-14T01:40:21;99191.25;;;17.27;40.92
75157;BME280;63736;50.076;8.198;2023-06-14T01:42:47;99190.06;;;17.30;40.87
75157;BME280;63736;50.076;8.198;2023-06-14T01:45:14;99189.38;;;17.28;40.53
75157;BME280;63736;50.076;8.198;2023-06-14T01:47:41;99195.78;;;17.27;40.88
75157;BME280;63736;50.076;8.198;2023-06-14T01:50:06;99190.38;;;17.27;40.63
75157;BME280;63736;50.076;8.198;2023-06-14T01:52:32;99188.56;;;17.27;41.17
75157;BME280;63736;50.076;8.198;2023-06-14T01:54:57;99186.88;;;17.26;40.99
75157;BME280;63736;50.076;8.198;2023-06-14T01:57:23;99189.19;;;17.29;40.92
75157;BME280;63736;50.076;8.198;2023-06-14T01:59:49;99188.56;;;17.27;40.61
75157;BME280;63736;50.076;8.198;2023-06-14T02:02:15;99191.97;;;17.21;40.87
75157;BME280;63736;50.076;8.198;2023-06-14T02:04:41;99190.16;;;17.13;40.98
75157;BME280;63736;50.076;8.198;2023-06-14T02:07:07;99190.03;;;17.07;41.51
75157;BME280;63736;50.076;8.198;2023-06-14T02:09:33;99195.13;;;17.01;41.42
75157;BME280;63736;50.076;8.198;2023-06-14T02:11:58;99191.94;;;16.98;41.33
75157;BME280;63736;50.076;8.198;2023-06-14T02:14:24;99184.56;;;16.92;41.89
75157;BME280;63736;50.076;8.198;2023-06-14T02:16:49;99195.00;;;16.87;41.79
75157;BME280;63736;50.076;8.198;2023-06-14T02:19:16;99201.97;;;16.81;41.96
75157;BME280;63736;50.076;8.198;2023-06-14T02:21:41;99197.28;;;16.75;42.14
75157;BME280;63736;50.076;8.198;2023-06-14T02:24:07;99193.94;;;16.73;42.36
75157;BME280;63736;50.076;8.198;2023-06-14T02:26:32;99197.59;;;16.80;42.26
75157;BME280;63736;50.076;8.198;2023-06-14T02:28:57;99203.63;;;16.90;42.31
75157;BME280;63736;50.076;8.198;2023-06-14T02:31:23;99200.03;;;16.98;42.00
75157;BME280;63736;50.076;8.198;2023-06-14T02:33:48;99198.66;;;17.02;42.15
75157;BME280;63736;50.076;8.198;2023-06-14T02:36:13;99196.63;;;17.04;42.31
75157;BME280;63736;50.076;8.198;2023-06-14T02:38:38;99193.09;;;17.04;41.81
75157;BME280;63736;50.076;8.198;2023-06-14T02:41:04;99193.09;;;17.04;42.32
75157;BME280;63736;50.076;8.198;2023-06-14T02:43:31;99189.38;;;17.05;41.77
75157;BME280;63736;50.076;8.198;2023-06-14T02:45:56;99200.34;;;17.03;41.85
75157;BME280;63736;50.076;8.198;2023-06-14T02:48:21;99186.84;;;17.03;42.32
75157;BME280;63736;50.076;8.198;2023-06-14T02:50:46;99194.31;;;17.01;42.26
75157;BME280;63736;50.076;8.198;2023-06-14T02:53:12;99191.94;;;16.98;41.79
75157;BME280;63736;50.076;8.198;2023-06-14T02:55:37;99187.75;;;16.95;42.01
75157;BME280;63736;50.076;8.198;2023-06-14T02:58:04;99195.34;;;16.92;42.69
75157;BME280;63736;50.076;8.198;2023-06-14T03:00:30;99189.47;;;16.88;42.32
75157;BME280;63736;50.076;8.198;2023-06-14T03:02:55;99194.19;;;16.86;42.60
75157;BME280;63736;50.076;8.198;2023-06-14T03:05:21;99201.91;;;16.89;43.11
75157;BME280;63736;50.076;8.198;2023-06-14T03:07:47;99194.69;;;16.90;43.23
75157;BME280;63736;50.076;8.198;2023-06-14T03:10:12;99197.56;;;16.88;43.06
75157;BME280;63736;50.076;8.198;2023-06-14T03:12:38;99205.66;;;16.88;43.41
75157;BME280;63736;50.076;8.198;2023-06-14T03:15:04;99210.00;;;16.89;43.37
75157;BME280;63736;50.076;8.198;2023-06-14T03:17:29;99206.47;;;16.89;43.15
75157;BME280;63736;50.076;8.198;2023-06-14T03:19:58;99210.38;;;16.86;43.79
75157;BME280;63736;50.076;8.198;2023-06-14T03:22:23;99217.78;;;16.84;44.05
75157;BME280;63736;50.076;8.198;2023-06-14T03:24:50;99211.94;;;16.80;43.77
75157;BME280;63736;50.076;8.198;2023-06-14T03:27:16;99220.19;;;16.79;43.87
75157;BME280;63736;50.076;8.198;2023-06-14T03:29:42;99214.13;;;16.77;43.70
75157;BME280;63736;50.076;8.198;2023-06-14T03:32:07;99217.31;;;16.80;44.08
75157;BME280;63736;50.076;8.198;2023-06-14T03:34:33;99222.88;;;16.79;44.47
75157;BME280;63736;50.076;8.198;2023-06-14T03:36:58;99228.28;;;16.79;44.29
75157;BME280;63736;50.076;8.198;2023-06-14T03:39:23;99232.16;;;16.76;44.69
75157;BME280;63736;50.076;8.198;2023-06-14T03:41:49;99235.03;;;16.75;44.69
75157;BME280;63736;50.076;8.198;2023-06-14T03:44:16;99226.31;;;16.73;44.95
75157;BME280;63736;50.076;8.198;2023-06-14T03:46:42;99233.19;;;16.75;44.76
75157;BME280;63736;50.076;8.198;2023-06-14T03:49:07;99234.84;;;16.76;45.02
75157;BME280;63736;50.076;8.198;2023-06-14T03:51:33;99244.31;;;16.80;45.03
75157;BME280;63736;50.076;8.198;2023-06-14T03:54:00;99247.31;;;16.85;44.54
75157;BME280;63736;50.076;8.198;2023-06-14T03:56:25;99249.50;;;16.90;45.04
75157;BME280;63736;50.076;8.198;2023-06-14T03:58:51;99248.31;;;16.93;44.63
75157;BME280;63736;50.076;8.198;2023-06-14T04:01:17;99254.38;;;16.95;45.01
75157;BME280;63736;50.076;8.198;2023-06-14T04:03:42;99255.19;;;16.95;44.75
75157;BME280;63736;50.076;8.198;2023-06-14T04:06:07;99252.16;;;16.98;44.61
75157;BME280;63736;50.076;8.198;2023-06-14T04:08:33;99260.72;;;17.02;44.98
75157;BME280;63736;50.076;8.198;2023-06-14T04:10:58;99257.13;;;17.10;44.95
75157;BME280;63736;50.076;8.198;2023-06-14T04:13:23;99261.97;;;17.23;44.74
75157;BME280;63736;50.076;8.198;2023-06-14T04:15:49;99257.84;;;17.58;44.02
75157;BME280;63736;50.076;8.198;2023-06-14T04:18:14;99254.53;;;18.24;43.30
75157;BME280;63736;50.076;8.198;2023-06-14T04:20:39;99255.94;;;18.95;41.85
75157;BME280;63736;50.076;8.198;2023-06-14T04:23:16;99253.84;;;19.77;40.28
75157;BME280;63736;50.076;8.198;2023-06-14T04:25:43;99260.66;;;20.51;39.44
75157;BME280;63736;50.076;8.198;2023-06-14T04:28:11;99255.50;;;21.18;37.51
75157;BME280;63736;50.076;8.198;2023-06-14T04:30:37;99258.16;;;21.73;36.53
75157;BME280;63736;50.076;8.198;2023-06-14T04:33:05;99253.72;;;22.26;35.67
75157;BME280;63736;50.076;8.198;2023-06-14T04:35:31;99258.66;;;22.76;34.94
75157;BME280;63736;50.076;8.198;2023-06-14T04:37:57;99253.38;;;23.26;33.95
75157;BME280;63736;50.076;8.198;2023-06-14T04:40:23;99258.09;;;23.76;33.44
75157;BME280;63736;50.076;8.198;2023-06-14T04:42:48;99249.44;;;24.30;32.70
75157;BME280;63736;50.076;8.198;2023-06-14T04:45:16;99255.84;;;24.80;31.70
75157;BME280;63736;50.076;8.198;2023-06-14T04:47:41;99258.41;;;25.12;31.29
75157;BME280;63736;50.076;8.198;2023-06-14T04:50:07;99264.53;;;25.68;31.11
75157;BME280;63736;50.076;8.198;2023-06-14T04:52:32;99268.31;;;26.33;30.22
75157;BME280;63736;50.076;8.198;2023-06-14T04:54:58;99259.72;;;26.77;29.16
75157;BME280;63736;50.076;8.198;2023-06-14T04:57:23;99263.88;;;27.20;28.74
75157;BME280;63736;50.076;8.198;2023-06-14T04:59:50;99270.31;;;27.72;28.21
75157;BME280;63736;50.076;8.198;2023-06-14T05:02:20;99271.66;;;28.20;27.31
75157;BME280;63736;50.076;8.198;2023-06-14T05:04:45;99273.34;;;28.60;26.88
75157;BME280;63736;50.076;8.198;2023-06-14T05:07:12;99274.72;;;29.02;26.53
75157;BME280;63736;50.076;8.198;2023-06-14T05:09:39;99282.81;;;29.36;26.13
75157;BME280;63736;50.076;8.198;2023-06-14T05:12:05;99281.22;;;29.73;25.53
75157;BME280;63736;50.076;8.198;2023-06-14T05:14:32;99282.78;;;30.23;25.24
75157;BME280;63736;50.076;8.198;2023-06-14T05:16:58;99281.47;;;30.79;24.81
75157;BME280;63736;50.076;8.198;2023-06-14T05:19:23;99288.84;;;31.31;24.02
75157;BME280;63736;50.076;8.198;2023-06-14T05:21:48;99285.06;;;31.63;23.13
75157;BME280;63736;50.076;8.198;2023-06-14T05:24:14;99286.47;;;31.92;22.69
75157;BME280;63736;50.076;8.198;2023-06-14T05:26:40;99290.06;;;31.82;22.26
75157;BME280;63736;50.076;8.198;2023-06-14T05:29:05;99288.66;;;31.79;22.33
75157;BME280;63736;50.076;8.198;2023-06-14T05:31:31;99291.44;;;31.79;22.38
75157;BME280;63736;50.076;8.198;2023-06-14T05:33:56;99292.81;;;31.82;22.12
75157;BME280;63736;50.076;8.198;2023-06-14T05:36:22;99293.09;;;31.96;22.35
75157;BME280;63736;50.076;8.198;2023-06-14T05:38:47;99292.25;;;32.11;21.70
75157;BME280;63736;50.076;8.198;2023-06-14T05:41:13;99298.06;;;32.30;21.31
75157;BME280;63736;50.076;8.198;2023-06-14T05:43:38;99294.19;;;32.36;20.96
75157;BME280;63736;50.076;8.198;2023-06-14T05:46:03;99311.59;;;32.37;21.15
75157;BME280;63736;50.076;8.198;2023-06-14T05:48:30;99310.50;;;32.22;20.58
75157;BME280;63736;50.076;8.198;2023-06-14T05:50:55;99311.34;;;32.23;21.05
75157;BME280;63736;50.076;8.198;2023-06-14T05:53:21;99309.09;;;32.56;21.34
75157;BME280;63736;50.076;8.198;2023-06-14T05:55:46;99315.28;;;33.13;21.12
75157;BME280;63736;50.076;8.198;2023-06-14T05:58:11;99315.25;;;33.68;20.61
75157;BME280;63736;50.076;8.198;2023-06-14T06:00:38;99318.50;;;34.15;20.40
75157;BME280;63736;50.076;8.198;2023-06-14T06:03:04;99333.88;;;34.32;19.56
75157;BME280;63736;50.076;8.198;2023-06-14T06:05:30;99332.22;;;34.01;19.76
75157;BME280;63736;50.076;8.198;2023-06-14T06:07:55;99324.59;;;33.83;20.00
75157;BME280;63736;50.076;8.198;2023-06-14T06:10:20;99338.31;;;33.58;20.35
75157;BME280;63736;50.076;8.198;2023-06-14T06:12:46;99333.34;;;33.50;20.12
75157;BME280;63736;50.076;8.198;2023-06-14T06:15:12;99335.09;;;33.86;20.28
75157;BME280;63736;50.076;8.198;2023-06-14T06:17:38;99339.97;;;34.39;19.67
75157;BME280;63736;50.076;8.198;2023-06-14T06:20:05;99340.28;;;34.62;18.77
75157;BME280;63736;50.076;8.198;2023-06-14T06:22:33;99338.66;;;34.85;19.16
75157;BME280;63736;50.076;8.198;2023-06-14T06:24:58;99337.69;;;35.43;18.89
75157;BME280;63736;50.076;8.198;2023-06-14T06:27:23;99342.19;;;35.58;18.43
75157;BME280;63736;50.076;8.198;2023-06-14T06:29:49;99348.31;;;35.36;18.14
75157;BME280;63736;50.076;8.198;2023-06-14T06:32:15;99342.47;;;35.37;17.68
75157;BME280;63736;50.076;8.198;2023-06-14T06:34:40;99348.66;;;34.86;18.16
75157;BME280;63736;50.076;8.198;2023-06-14T06:37:06;99350.28;;;34.28;18.33
75157;BME280;63736;50.076;8.198;2023-06-14T06:39:31;99343.22;;;34.12;18.37
75157;BME280;63736;50.076;8.198;2023-06-14T06:41:56;99355.25;;;34.31;18.50
75157;BME280;63736;50.076;8.198;2023-06-14T06:44:22;99353.63;;;34.60;18.44
75157;BME280;63736;50.076;8.198;2023-06-14T06:46:47;99357.19;;;34.31;18.48
75157;BME280;63736;50.076;8.198;2023-06-14T06:49:12;99359.38;;;34.39;18.54
75157;BME280;63736;50.076;8.198;2023-06-14T06:51:41;99359.16;;;34.89;18.52
75157;BME280;63736;50.076;8.198;2023-06-14T06:54:07;99353.97;;;35.06;18.14
75157;BME280;63736;50.076;8.198;2023-06-14T06:56:33;99362.00;;;35.70;17.89
75157;BME280;63736;50.076;8.198;2023-06-14T06:58:58;99361.66;;;35.96;17.67
75157;BME280;63736;50.076;8.198;2023-06-14T07:01:24;99364.66;;;35.81;17.58
75157;BME280;63736;50.076;8.198;2023-06-14T07:03:49;99360.75;;;36.34;17.19
75157;BME280;63736;50.076;8.198;2023-06-14T07:06:15;99367.13;;;36.81;17.14
75157;BME280;63736;50.076;8.198;2023-06-14T07:08:43;99359.53;;;36.87;16.17
75157;BME280;63736;50.076;8.198;2023-06-14T07:11:08;99370.81;;;36.77;16.42
75157;BME280;63736;50.076;8.198;2023-06-14T07:13:34;99360.03;;;36.61;16.45
75157;BME280;63736;50.076;8.198;2023-06-14T07:15:59;99375.84;;;36.47;16.11
75157;BME280;63736;50.076;8.198;2023-06-14T07:18:28;99392.03;;;35.68;16.72
75157;BME280;63736;50.076;8.198;2023-06-14T07:20:53;99375.56;;;34.80;17.66
75157;BME280;63736;50.076;8.198;2023-06-14T07:23:22;99372.28;;;34.49;17.91
75157;BME280;63736;50.076;8.198;2023-06-14T07:25:47;99377.53;;;34.80;17.94
75157;BME280;63736;50.076;8.198;2023-06-14T07:28:12;99380.88;;;35.06;18.12
75157;BME280;63736;50.076;8.198;2023-06-14T07:30:38;99378.56;;;35.37;17.85
75157;BME280;63736;50.076;8.198;2023-06-14T07:33:03;99375.88;;;35.08;17.81
75157;BME280;63736;50.076;8.198;2023-06-14T07:35:28;99383.00;;;34.90;17.29
75157;BME280;63736;50.076;8.198;2023-06-14T07:37:54;99383.47;;;35.46;17.32
75157;BME280;63736;50.076;8.198;2023-06-14T07:40:19;99380.50;;;35.61;16.97
75157;BME280;63736;50.076;8.198;2023-06-14T07:42:44;99384.06;;;35.43;17.29
75157;BME280;63736;50.076;8.198;2023-06-14T07:45:11;99385.06;;;35.03;17.53
75157;BME280;63736;50.076;8.198;2023-06-14T07:47:37;99388.09;;;34.78;17.69
75157;BME280;63736;50.076;8.198;2023-06-14T07:50:02;99386.84;;;34.65;17.90
75157;BME280;63736;50.076;8.198;2023-06-14T07:52:28;99387.22;;;35.12;17.99
75157;BME280;63736;50.076;8.198;2023-06-14T07:54:53;99385.56;;;34.81;17.79
75157;BME280;63736;50.076;8.198;2023-06-14T07:57:19;99377.66;;;34.99;17.81
75157;BME280;63736;50.076;8.198;2023-06-14T07:59:45;99375.31;;;35.30;17.79
75157;BME280;63736;50.076;8.198;2023-06-14T08:02:11;99382.91;;;35.87;17.29
75157;BME280;63736;50.076;8.198;2023-06-14T08:04:36;99378.59;;;36.80;16.70
75157;BME280;63736;50.076;8.198;2023-06-14T08:07:01;99379.72;;;36.13;16.82
75157;BME280;63736;50.076;8.198;2023-06-14T08:09:27;99382.00;;;35.29;17.28
75157;BME280;63736;50.076;8.198;2023-06-14T08:11:54;99382.47;;;35.12;17.49
75157;BME280;63736;50.076;8.198;2023-06-14T08:14:19;99381.13;;;35.10;17.74
75157;BME280;63736;50.076;8.198;2023-06-14T08:16:44;99378.06;;;35.54;17.22
75157;BME280;63736;50.076;8.198;2023-06-14T08:19:10;99378.38;;;35.53;16.87
75157;BME280;63736;50.076;8.198;2023-06-14T08:21:35;99388.97;;;35.27;17.13
75157;BME280;63736;50.076;8.198;2023-06-14T08:24:01;99381.06;;;35.15;17.44
75157;BME280;63736;50.076;8.198;2023-06-14T08:26:27;99379.81;;;34.72;17.96
75157;BME280;63736;50.076;8.198;2023-06-14T08:28:54;99367.16;;;34.66;17.58
75157;BME280;63736;50.076;8.198;2023-06-14T08:31:20;99379.75;;;34.53;17.64
75157;BME280;63736;50.076;8.198;2023-06-14T08:33:45;99380.06;;;34.76;17.68
75157;BME280;63736;50.076;8.198;2023-06-14T08:36:10;99375.03;;;34.54;17.11
75157;BME280;63736;50.076;8.198;2023-06-14T08:38:37;99383.84;;;34.26;17.33
75157;BME280;63736;50.076;8.198;2023-06-14T08:41:05;99372.75;;;33.92;17.70
75157;BME280;63736;50.076;8.198;2023-06-14T08:43:31;99377.91;;;34.09;17.84
75157;BME280;63736;50.076;8.198;2023-06-14T08:46:06;99366.84;;;34.38;17.76
75157;BME280;63736;50.076;8.198;2023-06-14T08:48:33;99380.31;;;35.28;17.30
75157;BME280;63736;50.076;8.198;2023-06-14T08:51:00;99389.97;;;35.36;17.05
75157;BME280;63736;50.076;8.198;2023-06-14T08:53:31;99381.13;;;35.53;16.79
75157;BME280;63736;50.076;8.198;2023-06-14T08:55:59;99385.81;;;35.33;16.32
75157;BME280;63736;50.076;8.198;2023-06-14T08:58:30;99389.56;;;34.99;16.63
75157;BME280;63736;50.076;8.198;2023-06-14T09:00:57;99391.25;;;34.41;16.77
75157;BME280;63736;50.076;8.198;2023-06-14T09:03:23;99397.59;;;34.42;17.23
75157;BME280;63736;50.076;8.198;2023-06-14T09:05:56;99391.72;;;34.49;17.66
75157;BME280;63736;50.076;8.198;2023-06-14T09:08:21;99393.63;;;34.14;17.91
75157;BME280;63736;50.076;8.198;2023-06-14T09:10:47;99387.25;;;33.68;18.15
75157;BME280;63736;50.076;8.198;2023-06-14T09:13:12;99403.16;;;34.02;17.80
75157;BME280;63736;50.076;8.198;2023-06-14T09:15:37;99392.44;;;33.85;17.58
75157;BME280;63736;50.076;8.198;2023-06-14T09:18:03;99399.84;;;34.00;17.77
75157;BME280;63736;50.076;8.198;2023-06-14T09:20:29;99390.44;;;34.31;17.63
75157;BME280;63736;50.076;8.198;2023-06-14T09:22:55;99396.03;;;34.25;17.52
75157;BME280;63736;50.076;8.198;2023-06-14T09:25:21;99395.56;;;34.82;17.32
75157;BME280;63736;50.076;8.198;2023-06-14T09:27:47;99394.72;;;34.18;18.12
75157;BME280;63736;50.076;8.198;2023-06-14T09:30:13;99396.63;;;33.77;18.60
75157;BME280;63736;50.076;8.198;2023-06-14T09:32:39;99400.63;;;33.56;18.98
75157;BME280;63736;50.076;8.198;2023-06-14T09:35:08;99404.47;;;33.65;18.35
75157;BME280;63736;50.076;8.198;2023-06-14T09:37:34;99408.78;;;34.26;18.17
75157;BME280;63736;50.076;8.198;2023-06-14T09:40:00;99414.47;;;34.06;18.03
75157;BME280;63736;50.076;8.198;2023-06-14T09:42:26;99421.78;;;33.21;18.09
75157;BME280;63736;50.076;8.198;2023-06-14T09:44:53;99409.09;;;33.04;18.23
75157;BME280;63736;50.076;8.198;2023-06-14T09:47:19;99413.56;;;32.95;18.89
75157;BME280;63736;50.076;8.198;2023-06-14T09:49:45;99424.38;;;32.81;19.23
75157;BME280;63736;50.076;8.198;2023-06-14T09:52:15;99416.88;;;33.07;18.37
75157;BME280;63736;50.076;8.198;2023-06-14T09:54:42;99419.72;;;33.63;17.93
75157;BME280;63736;50.076;8.198;2023-06-14T09:57:10;99422.13;;;32.99;18.47
75157;BME280;63736;50.076;8.198;2023-06-14T09:59:39;99428.47;;;33.09;18.77
75157;BME280;63736;50.076;8.198;2023-06-14T10:02:11;99431.00;;;32.90;18.67
75157;BME280;63736;50.076;8.198;2023-06-14T10:04:41;99416.34;;;32.43;18.62
75157;BME280;63736;50.076;8.198;2023-06-14T10:07:14;99421.31;;;32.16;18.96
75157;BME280;63736;50.076;8.198;2023-06-14T10:09:39;99420.22;;;32.63;18.62
75157;BME280;63736;50.076;8.198;2023-06-14T10:12:09;99421.50;;;33.33;18.37
75157;BME280;63736;50.076;8.198;2023-06-14T10:14:36;99417.63;;;33.34;17.86
75157;BME280;63736;50.076;8.198;2023-06-14T10:17:10;99417.97;;;33.06;17.58
75157;BME280;63736;50.076;8.198;2023-06-14T10:19:48;99407.81;;;32.40;18.42
75157;BME280;63736;50.076;8.198;2023-06-14T10:22:21;99427.31;;;31.76;19.16
75157;BME280;63736;50.076;8.198;2023-06-14T10:24:50;99424.03;;;30.84;20.50
75157;BME280;63736;50.076;8.198;2023-06-14T10:27:16;99414.16;;;30.18;21.49
75157;BME280;63736;50.076;8.198;2023-06-14T10:32:23;99427.03;;;29.01;22.96
75157;BME280;63736;50.076;8.198;2023-06-14T10:35:00;99433.06;;;27.72;24.22
75157;BME280;63736;50.076;8.198;2023-06-14T10:37:26;99418.25;;;27.20;24.85
75157;BME280;63736;50.076;8.198;2023-06-14T10:39:51;99417.69;;;27.07;25.46
75157;BME280;63736;50.076;8.198;2023-06-14T10:42:17;99420.88;;;27.15;25.54
75157;BME280;63736;50.076;8.198;2023-06-14T10:44:52;99430.06;;;26.85;25.85
75157;BME280;63736;50.076;8.198;2023-06-14T10:47:25;99428.72;;;26.52;25.78
75157;BME280;63736;50.076;8.198;2023-06-14T10:50:10;99414.28;;;26.45;26.19
75157;BME280;63736;50.076;8.198;2023-06-14T10:52:40;99419.75;;;26.33;26.80
75157;BME280;63736;50.076;8.198;2023-06-14T10:57:51;99427.03;;;25.30;28.64
75157;BME280;63736;50.076;8.198;2023-06-14T11:00:19;99421.09;;;25.14;29.39
75157;BME280;63736;50.076;8.198;2023-06-14T11:05:26;99419.25;;;25.27;29.23
75157;BME280;63736;50.076;8.198;2023-06-14T11:10:43;99427.38;;;25.70;28.79
75157;BME280;63736;50.076;8.198;2023-06-14T11:13:10;99425.59;;;25.46;28.57
75157;BME280;63736;50.076;8.198;2023-06-14T11:15:36;99423.31;;;25.43;28.59
75157;BME280;63736;50.076;8.198;2023-06-14T11:18:06;99417.59;;;25.63;28.54
75157;BME280;63736;50.076;8.198;2023-06-14T11:20:35;99419.78;;;26.03;28.13
75157;BME280;63736;50.076;8.198;2023-06-14T11:23:01;99414.22;;;26.10;28.04
75157;BME280;63736;50.076;8.198;2023-06-14T11:25:27;99425.31;;;25.84;28.31
75157;BME280;63736;50.076;8.198;2023-06-14T11:27:55;99419.41;;;25.32;28.20
75157;BME280;63736;50.076;8.198;2023-06-14T11:30:21;99417.50;;;25.14;28.90
75157;BME280;63736;50.076;8.198;2023-06-14T11:32:50;99424.50;;;25.28;28.91
75157;BME280;63736;50.076;8.198;2023-06-14T11:35:17;99435.28;;;25.23;29.44
75157;BME280;63736;50.076;8.198;2023-06-14T11:37:43;99436.44;;;25.15;29.18
75157;BME280;63736;50.076;8.198;2023-06-14T11:40:10;99432.91;;;24.89;29.20
75157;BME280;63736;50.076;8.198;2023-06-14T11:42:37;99422.88;;;24.83;29.49
75157;BME280;63736;50.076;8.198;2023-06-14T11:45:04;99422.31;;;25.00;29.26
75157;BME280;63736;50.076;8.198;2023-06-14T11:47:34;99429.13;;;24.90;29.46
75157;BME280;63736;50.076;8.198;2023-06-14T11:50:00;99431.97;;;24.77;29.82
75157;BME280;63736;50.076;8.198;2023-06-14T11:52:26;99412.16;;;24.63;29.20
75157;BME280;63736;50.076;8.198;2023-06-14T11:54:52;99422.16;;;24.69;29.47
75157;BME280;63736;50.076;8.198;2023-06-14T11:57:18;99414.13;;;24.74;29.21
75157;BME280;63736;50.076;8.198;2023-06-14T11:59:44;99410.91;;;24.84;28.72
75157;BME280;63736;50.076;8.198;2023-06-14T12:02:14;99436.94;;;24.87;28.27
75157;BME280;63736;50.076;8.198;2023-06-14T12:04:51;99410.09;;;24.77;28.02
75157;BME280;63736;50.076;8.198;2023-06-14T12:07:18;99408.75;;;24.86;28.08
75157;BME280;63736;50.076;8.198;2023-06-14T12:12:23;99405.91;;;25.18;28.18
75157;BME280;63736;50.076;8.198;2023-06-14T12:14:51;99414.63;;;25.27;27.75
75157;BME280;63736;50.076;8.198;2023-06-14T12:17:17;99410.09;;;25.39;27.46
75157;BME280;63736;50.076;8.198;2023-06-14T12:19:43;99417.63;;;25.75;27.72
75157;BME280;63736;50.076;8.198;2023-06-14T12:22:13;99416.81;;;25.74;27.70
75157;BME280;63736;50.076;8.198;2023-06-14T12:24:38;99412.31;;;25.80;27.58
75157;BME280;63736;50.076;8.198;2023-06-14T12:27:05;99409.84;;;25.90;27.72
75157;BME280;63736;50.076;8.198;2023-06-14T12:29:33;99413.78;;;25.94;27.92
75157;BME280;63736;50.076;8.198;2023-06-14T12:31:58;99418.41;;;25.82;27.61
75157;BME280;63736;50.076;8.198;2023-06-14T12:34:24;99395.34;;;25.89;27.69
75157;BME280;63736;50.076;8.198;2023-06-14T12:36:55;99397.44;;;26.06;27.53
75157;BME280;63736;50.076;8.198;2023-06-14T12:39:21;99402.63;;;26.50;27.16
75157;BME280;63736;50.076;8.198;2023-06-14T12:41:47;99398.97;;;26.92;26.59
75157;BME280;63736;50.076;8.198;2023-06-14T12:44:13;99408.97;;;26.98;26.64
75157;BME280;63736;50.076;8.198;2023-06-14T12:46:39;99417.88;;;26.69;26.89
75157;BME280;63736;50.076;8.198;2023-06-14T12:49:07;99414.28;;;26.45;27.64
75157;BME280;63736;50.076;8.198;2023-06-14T12:51:33;99419.56;;;26.47;27.40
75157;BME280;63736;50.076;8.198;2023-06-14T12:53:58;99412.00;;;26.30;27.80
75157;BME280;63736;50.076;8.198;2023-06-14T12:56:23;99420.47;;;26.29;27.65
75157;BME280;63736;50.076;8.198;2023-06-14T12:58:49;99418.44;;;26.24;27.86
75157;BME280;63736;50.076;8.198;2023-06-14T13:01:14;99414.50;;;26.20;27.45
75157;BME280;63736;50.076;8.198;2023-06-14T13:03:39;99417.59;;;26.24;27.61
75157;BME280;63736;50.076;8.198;2023-06-14T13:06:05;99411.66;;;26.27;28.46
75157;BME280;63736;50.076;8.198;2023-06-14T13:08:30;99422.91;;;26.07;28.77
75157;BME280;63736;50.076;8.198;2023-06-14T13:10:56;99423.72;;;25.77;28.67
75157;BME280;63736;50.076;8.198;2023-06-14T13:13:21;99414.84;;;25.63;28.56